Time;durP1;ratioP1;P1;durP2;ratioP2;P2;SDS_P1;SDS_P2;PMS_P1;PMS_P2;Temp;Humidity;BMP_temperature;BMP_pressure;BME280_temperature;BME280_humidity;BME280_pressure;Samples;Min_cycle;Max_cycle;Signal;HPM_P1;HPM_P2
2021/07/09 00:03:02;;;;;;;1.40;1.30;;;19.70;99.90;;;;;;5020007;28;20510;-79
2021/07/09 00:05:31;;;;;;;4.03;1.30;;;19.70;99.90;;;;;;5029908;28;21002;-78
2021/07/09 00:08:00;;;;;;;2.43;1.30;;;19.70;99.90;;;;;;5030908;28;20459;-79
2021/07/09 00:10:28;;;;;;;1.40;1.30;;;19.70;99.90;;;;;;5026676;28;20452;-80
2021/07/09 00:12:56;;;;;;;2.30;1.33;;;19.70;99.90;;;;;;5030811;28;20459;-80
2021/07/09 00:15:24;;;;;;;3.57;1.27;;;19.70;99.90;;;;;;5030258;28;20919;-78
2021/07/09 00:17:52;;;;;;;2.60;1.17;;;19.70;99.90;;;;;;5032319;28;20444;-78
2021/07/09 00:20:21;;;;;;;1.73;1.40;;;19.70;99.90;;;;;;5030176;28;20967;-79
2021/07/09 00:22:49;;;;;;;1.40;1.30;;;19.80;99.90;;;;;;5029227;28;20444;-78
2021/07/09 00:25:19;;;;;;;1.37;1.23;;;19.70;17.00;;;;;;5030879;28;20459;-79
2021/07/09 00:27:47;;;;;;;1.43;1.20;;;19.70;99.90;;;;;;5029725;28;20514;-78
2021/07/09 00:30:16;;;;;;;2.27;1.80;;;19.70;99.90;;;;;;5030643;28;20453;-78
2021/07/09 00:32:44;;;;;;;1.70;1.50;;;19.70;99.90;;;;;;5030537;28;20455;-78
2021/07/09 00:35:13;;;;;;;3.77;1.70;;;19.70;99.90;;;;;;5026563;28;20459;-78
2021/07/09 00:37:41;;;;;;;1.67;1.57;;;19.70;99.90;;;;;;5031459;28;20460;-79
2021/07/09 00:40:11;;;;;;;1.67;1.53;;;19.70;99.90;;;;;;5013623;28;20449;-77
2021/07/09 00:42:42;;;;;;;2.23;1.60;;;19.70;99.90;;;;;;5027358;28;20462;-79
2021/07/09 00:45:12;;;;;;;1.63;1.50;;;19.70;7.30;;;;;;5031175;28;20529;-78
2021/07/09 00:47:44;;;;;;;1.67;1.57;;;19.70;99.90;;;;;;5030191;28;20937;-80
2021/07/09 00:50:13;;;;;;;1.57;1.47;;;19.70;99.90;;;;;;5032300;28;20526;-78
2021/07/09 00:52:42;;;;;;;8.13;1.80;;;19.70;99.90;;;;;;5030416;28;20505;-77
2021/07/09 00:55:11;;;;;;;2.80;1.60;;;19.70;99.90;;;;;;5030383;28;20530;-77
2021/07/09 00:57:41;;;;;;;2.07;1.30;;;19.70;99.90;;;;;;5030096;28;21174;-78
2021/07/09 01:00:12;;;;;;;1.27;1.20;;;19.60;99.90;;;;;;5030952;28;20943;-78
2021/07/09 01:02:41;;;;;;;1.80;1.33;;;19.60;99.90;;;;;;5025244;28;20523;-80
2021/07/09 01:05:11;;;;;;;1.57;1.47;;;19.60;99.90;;;;;;5028996;28;20466;-76
2021/07/09 01:07:39;;;;;;;2.20;1.23;;;19.60;99.90;;;;;;5031379;28;20529;-77
2021/07/09 01:10:11;;;;;;;2.13;1.40;;;19.60;99.90;;;;;;5027675;28;20461;-78
2021/07/09 01:12:41;;;;;;;1.27;1.03;;;19.60;99.90;;;;;;5028709;28;20464;-78
2021/07/09 01:15:12;;;;;;;1.97;1.20;;;19.60;48.10;;;;;;5032455;28;20480;-77
2021/07/09 01:17:41;;;;;;;2.23;1.20;;;19.60;1.00;;;;;;5027893;28;20467;-77
2021/07/09 01:20:12;;;;;;;2.37;1.47;;;19.60;1.00;;;;;;5032367;28;20821;-78
2021/07/09 01:22:42;;;;;;;2.20;1.97;;;19.60;1.00;;;;;;5028136;28;20451;-78
2021/07/09 01:25:14;;;;;;;1.73;1.10;;;19.60;1.00;;;;;;5030961;28;20496;-78
2021/07/09 01:27:44;;;;;;;1.40;1.27;;;19.50;1.00;;;;;;5028137;28;20448;-78
2021/07/09 01:30:15;;;;;;;1.23;1.13;;;19.50;1.00;;;;;;5020566;28;20460;-77
2021/07/09 01:32:44;;;;;;;1.27;1.17;;;19.50;1.00;;;;;;5031414;28;21037;-77
2021/07/09 01:35:13;;;;;;;2.00;1.13;;;19.50;1.00;;;;;;5030267;28;20448;-77
2021/07/09 01:37:41;;;;;;;2.10;1.10;;;19.50;1.00;;;;;;5031958;28;20709;-78
2021/07/09 01:40:12;;;;;;;1.47;1.20;;;19.50;1.00;;;;;;5030596;28;20437;-77
2021/07/09 01:42:41;;;;;;;1.50;1.40;;;19.50;1.00;;;;;;5026992;28;20502;-79
2021/07/09 01:45:10;;;;;;;1.10;1.10;;;19.50;1.00;;;;;;5032282;28;20462;-75
2021/07/09 01:47:38;;;;;;;3.90;1.37;;;19.50;99.90;;;;;;5032700;28;20448;-77
2021/07/09 01:50:07;;;;;;;1.30;1.20;;;19.50;99.90;;;;;;5033792;28;20891;-78
2021/07/09 01:52:35;;;;;;;1.73;1.07;;;19.50;99.90;;;;;;5030211;28;20520;-77
2021/07/09 01:55:06;;;;;;;1.17;1.10;;;19.50;99.90;;;;;;5033263;28;20472;-76
2021/07/09 01:57:35;;;;;;;5.07;1.33;;;19.50;99.90;;;;;;5020093;28;20707;-78
2021/07/09 02:00:08;;;;;;;1.47;1.30;;;19.40;99.90;;;;;;5029834;28;20451;-78
2021/07/09 02:02:36;;;;;;;1.57;1.10;;;19.40;99.90;;;;;;5025249;28;20452;-77
2021/07/09 02:05:09;;;;;;;3.03;1.30;;;19.40;1.00;;;;;;5031106;28;20479;-78
2021/07/09 02:07:38;;;;;;;1.33;1.23;;;19.40;1.00;;;;;;5029280;28;20452;-78
2021/07/09 02:10:08;;;;;;;1.80;1.00;;;19.40;1.00;;;;;;5028618;28;20463;-80
2021/07/09 02:12:38;;;;;;;7.07;1.23;;;19.40;1.00;;;;;;5023762;28;20533;-77
2021/07/09 02:15:10;;;;;;;1.60;1.50;;;19.40;1.00;;;;;;5026557;28;20515;-78
2021/07/09 02:17:39;;;;;;;2.70;1.23;;;19.40;1.00;;;;;;5027908;28;20466;-78
2021/07/09 02:20:10;;;;;;;1.33;1.23;;;19.40;1.00;;;;;;5028585;28;20532;-78
2021/07/09 02:22:38;;;;;;;1.30;1.13;;;19.40;1.00;;;;;;5028675;28;20821;-78
2021/07/09 02:25:08;;;;;;;3.10;1.10;;;19.40;1.00;;;;;;5027202;28;20893;-78
2021/07/09 02:27:39;;;;;;;5.23;1.90;;;19.40;1.00;;;;;;5020098;28;20440;-77
2021/07/09 02:30:10;;;;;;;2.07;1.30;;;19.40;1.00;;;;;;5027289;28;20468;-79
2021/07/09 02:32:39;;;;;;;2.40;1.10;;;19.40;1.00;;;;;;5020320;28;20448;-79
2021/07/09 02:35:11;;;;;;;1.47;1.37;;;19.40;1.00;;;;;;5026966;28;20475;-78
2021/07/09 02:37:39;;;;;;;1.77;1.03;;;19.30;1.00;;;;;;5026657;28;20471;-79
2021/07/09 02:40:09;;;;;;;1.83;1.20;;;19.30;1.00;;;;;;5027261;28;20451;-78
2021/07/09 02:42:39;;;;;;;2.93;1.30;;;19.30;1.00;;;;;;5028718;28;20521;-78
2021/07/09 02:45:08;;;;;;;2.00;1.50;;;19.30;1.00;;;;;;5026800;28;20558;-78
2021/07/09 02:47:37;;;;;;;1.30;1.20;;;19.30;1.00;;;;;;5011177;28;20530;-79
2021/07/09 02:50:07;;;;;;;2.40;1.47;;;19.30;1.00;;;;;;5015050;28;20521;-78
2021/07/09 02:52:35;;;;;;;1.40;1.30;;;19.30;1.00;;;;;;5028969;28;20470;-79
2021/07/09 02:55:05;;;;;;;2.23;1.80;;;19.30;1.00;;;;;;5032370;28;20809;-77
2021/07/09 02:57:34;;;;;;;1.63;1.20;;;19.30;1.00;;;;;;5028348;28;20631;-77
2021/07/09 03:00:05;;;;;;;2.00;1.20;;;19.20;1.00;;;;;;5029108;28;20466;-78
2021/07/09 03:02:33;;;;;;;1.20;1.10;;;19.30;1.00;;;;;;5020505;28;20464;-78
2021/07/09 03:05:01;;;;;;;1.27;1.17;;;19.20;99.90;;;;;;5018615;28;20482;-78
2021/07/09 03:07:29;;;;;;;2.20;1.20;;;19.30;99.90;;;;;;5031533;28;20455;-77
2021/07/09 03:09:57;;;;;;;1.77;1.67;;;19.20;1.00;;;;;;5030565;28;20506;-77
2021/07/09 03:12:25;;;;;;;1.40;1.10;;;19.20;99.90;;;;;;5029505;28;20451;-77
2021/07/09 03:14:53;;;;;;;1.70;1.30;;;19.20;99.90;;;;;;5030500;28;21064;-77
2021/07/09 03:17:23;;;;;;;1.40;1.30;;;19.20;99.90;;;;;;5030745;28;20577;-78
2021/07/09 03:19:51;;;;;;;3.33;1.30;;;19.20;99.90;;;;;;5030573;28;20511;-78
2021/07/09 03:22:19;;;;;;;1.83;1.23;;;19.20;99.90;;;;;;5028191;28;20451;-79
2021/07/09 03:24:47;;;;;;;1.50;1.30;;;19.20;99.90;;;;;;5031285;28;21002;-77
2021/07/09 03:27:15;;;;;;;1.40;1.13;;;19.20;1.00;;;;;;5028408;28;20983;-79
2021/07/09 03:29:43;;;;;;;1.50;1.40;;;19.20;1.00;;;;;;5028721;28;20870;-79
2021/07/09 03:32:11;;;;;;;2.47;1.30;;;19.20;1.00;;;;;;5027591;28;20460;-77
2021/07/09 03:34:41;;;;;;;1.50;1.40;;;19.20;1.00;;;;;;5031227;28;20471;-78
2021/07/09 03:37:09;;;;;;;3.13;1.60;;;19.20;1.00;;;;;;5030227;28;20463;-78
2021/07/09 03:39:37;;;;;;;3.23;2.07;;;19.20;1.00;;;;;;5029990;28;20450;-80
2021/07/09 03:42:05;;;;;;;4.80;1.73;;;19.20;1.00;;;;;;5033082;28;20459;-78
2021/07/09 03:44:33;;;;;;;2.60;1.60;;;19.20;1.00;;;;;;5026308;28;20488;-79
2021/07/09 03:47:01;;;;;;;1.70;1.60;;;19.20;99.90;;;;;;5025637;28;21267;-79
2021/07/09 03:49:29;;;;;;;1.50;1.40;;;19.20;99.90;;;;;;5032946;28;20483;-79
2021/07/09 03:51:59;;;;;;;2.60;1.40;;;19.20;99.90;;;;;;5033445;28;20440;-79
2021/07/09 03:54:27;;;;;;;3.60;1.70;;;19.20;99.90;;;;;;5032679;28;20483;-78
2021/07/09 03:56:55;;;;;;;2.87;1.43;;;19.20;99.90;;;;;;5033624;28;20513;-79
2021/07/09 03:59:23;;;;;;;3.70;1.90;;;19.20;99.90;;;;;;5033564;28;20530;-78
2021/07/09 04:01:52;;;;;;;4.00;1.83;;;19.20;99.90;;;;;;5033190;28;20463;-79
2021/07/09 04:04:20;;;;;;;2.60;1.60;;;19.20;99.90;;;;;;5026468;28;20884;-78
2021/07/09 04:06:48;;;;;;;3.50;2.00;;;19.20;99.90;;;;;;5020476;28;20452;-78
2021/07/09 04:09:18;;;;;;;1.50;1.40;;;19.20;99.90;;;;;;5032061;28;20494;-79
2021/07/09 04:11:47;;;;;;;2.00;1.70;;;19.20;99.90;;;;;;5033808;28;20458;-76
2021/07/09 04:14:15;;;;;;;1.70;1.60;;;19.20;99.90;;;;;;5026685;28;20488;-78
2021/07/09 04:16:43;;;;;;;1.70;1.50;;;19.20;99.90;;;;;;5031799;28;20459;-78
2021/07/09 04:19:12;;;;;;;2.43;1.43;;;19.10;99.90;;;;;;5032032;28;20480;-79
2021/07/09 04:21:40;;;;;;;2.30;2.10;;;19.10;99.90;;;;;;5021683;28;20483;-79
2021/07/09 04:24:08;;;;;;;1.93;1.80;;;19.10;99.90;;;;;;5033973;28;20507;-78
2021/07/09 04:26:37;;;;;;;1.90;1.67;;;19.10;99.90;;;;;;5032530;28;20973;-78
2021/07/09 04:29:06;;;;;;;1.73;1.50;;;19.20;99.90;;;;;;5030544;28;20444;-78
2021/07/09 04:31:34;;;;;;;3.93;1.70;;;19.20;99.90;;;;;;5031419;28;20467;-79
2021/07/09 04:34:02;;;;;;;1.40;1.30;;;19.20;99.90;;;;;;5032280;28;20467;-79
2021/07/09 04:36:30;;;;;;;1.40;1.30;;;19.10;99.90;;;;;;5032242;28;20828;-79
2021/07/09 04:38:59;;;;;;;1.33;1.23;;;19.10;99.90;;;;;;5032626;28;20998;-78
2021/07/09 04:41:27;;;;;;;1.50;1.40;;;19.10;99.90;;;;;;5030558;28;20653;-78
2021/07/09 04:43:56;;;;;;;2.20;1.57;;;19.10;99.90;;;;;;5027403;28;21281;-77
2021/07/09 04:46:24;;;;;;;2.60;1.20;;;19.10;99.90;;;;;;5029364;28;21163;-78
2021/07/09 04:48:53;;;;;;;4.23;1.43;;;19.10;99.90;;;;;;5050933;28;20456;-77
2021/07/09 04:51:21;;;;;;;1.77;1.33;;;19.10;99.90;;;;;;5031831;28;20514;-78
2021/07/09 04:53:49;;;;;;;3.30;1.50;;;19.10;99.90;;;;;;5026982;28;20486;-78
2021/07/09 04:56:17;;;;;;;1.47;1.13;;;19.10;99.90;;;;;;5031716;28;20987;-77
2021/07/09 04:58:45;;;;;;;1.30;1.20;;;19.10;99.90;;;;;;5032993;28;20468;-78
2021/07/09 05:01:15;;;;;;;1.40;1.30;;;19.10;99.90;;;;;;5031071;28;20459;-78
2021/07/09 05:03:43;;;;;;;1.57;1.47;;;19.10;99.90;;;;;;5034020;28;20844;-78
2021/07/09 05:06:11;;;;;;;2.37;2.17;;;19.00;99.90;;;;;;5032345;28;20459;-78
2021/07/09 05:08:39;;;;;;;4.03;1.57;;;19.00;99.90;;;;;;5022935;28;20471;-69
2021/07/09 05:11:07;;;;;;;2.23;1.50;;;18.90;99.90;;;;;;5025684;28;20471;-71
2021/07/09 05:13:38;;;;;;;1.40;1.30;;;19.00;1.00;;;;;;5023341;28;20484;-69
2021/07/09 05:16:07;;;;;;;1.90;1.37;;;18.80;1.00;;;;;;5022663;28;20452;-72
2021/07/09 05:18:36;;;;;;;1.33;1.23;;;18.80;1.00;;;;;;5029883;28;20486;-72
2021/07/09 05:21:04;;;;;;;1.20;1.10;;;18.70;2.30;;;;;;5028677;28;20456;-81
2021/07/09 05:23:33;;;;;;;1.93;1.10;;;18.70;99.90;;;;;;5023200;28;20484;-81
2021/07/09 05:26:01;;;;;;;1.80;1.40;;;18.80;99.90;;;;;;5024027;28;20812;-80
2021/07/09 05:28:29;;;;;;;1.60;1.50;;;18.80;1.00;;;;;;5037751;28;20510;-80
2021/07/09 05:30:57;;;;;;;2.10;1.50;;;18.90;1.00;;;;;;5028078;28;20494;-80
2021/07/09 05:33:25;;;;;;;1.93;1.77;;;18.90;1.00;;;;;;5027218;28;20545;-79
2021/07/09 05:35:55;;;;;;;1.90;1.80;;;18.90;1.00;;;;;;5027440;28;20445;-82
2021/07/09 05:38:23;;;;;;;2.53;1.33;;;18.90;1.00;;;;;;5031894;28;20475;-82
2021/07/09 05:40:51;;;;;;;1.93;1.30;;;19.00;1.00;;;;;;5028286;28;20695;-83
2021/07/09 05:43:20;;;;;;;1.90;1.50;;;19.00;1.00;;;;;;5028867;28;20479;-82
2021/07/09 05:45:48;;;;;;;4.43;1.43;;;19.00;1.00;;;;;;5027682;28;20502;-80
2021/07/09 05:48:16;;;;;;;1.40;1.30;;;19.00;1.00;;;;;;5024960;28;20452;-81
2021/07/09 05:50:45;;;;;;;2.27;1.30;;;19.00;19.10;;;;;;5019496;28;20515;-79
2021/07/09 05:53:14;;;;;;;1.53;1.40;;;19.00;99.90;;;;;;5025174;28;20484;-81
2021/07/09 05:55:43;;;;;;;1.67;1.20;;;19.00;99.90;;;;;;5017939;28;20512;-80
2021/07/09 05:58:11;;;;;;;1.50;1.40;;;19.00;99.90;;;;;;5029960;28;20460;-82
2021/07/09 06:00:41;;;;;;;1.53;1.37;;;19.00;99.90;;;;;;5029802;28;20514;-80
2021/07/09 06:03:09;;;;;;;1.27;1.17;;;19.00;99.90;;;;;;5028830;28;20480;-81
2021/07/09 06:05:37;;;;;;;2.17;1.33;;;19.00;99.90;;;;;;5023881;28;20451;-80
2021/07/09 06:08:06;;;;;;;2.23;1.47;;;19.10;99.90;;;;;;5030767;28;20531;-81
2021/07/09 06:10:37;;;;;;;1.40;1.30;;;19.10;1.00;;;;;;5030149;28;20441;-80
2021/07/09 06:13:06;;;;;;;1.67;1.53;;;19.00;99.90;;;;;;5021627;28;20465;-81
2021/07/09 06:15:34;;;;;;;1.73;1.50;;;19.10;18.30;;;;;;5028798;28;20443;-82
2021/07/09 06:18:18;;;;;;;1.50;1.40;;;19.10;99.90;;;;;;5029459;28;20451;-82
2021/07/09 06:20:46;;;;;;;1.63;1.20;;;19.10;1.00;;;;;;5029950;28;20451;-82
2021/07/09 06:23:15;;;;;;;1.60;1.20;;;19.10;99.90;;;;;;5031310;28;20455;-81
2021/07/09 06:25:45;;;;;;;3.77;1.57;;;19.10;1.00;;;;;;5029480;28;20447;-81
2021/07/09 06:28:13;;;;;;;1.57;1.47;;;19.10;1.00;;;;;;5026661;28;20443;-82
2021/07/09 06:30:41;;;;;;;1.70;1.60;;;19.20;1.00;;;;;;5030560;28;20448;-82
2021/07/09 06:33:09;;;;;;;2.00;1.90;;;19.20;1.00;;;;;;5029083;28;20473;-81
2021/07/09 06:35:38;;;;;;;2.37;2.20;;;19.20;1.00;;;;;;5029278;28;20865;-81
2021/07/09 06:38:07;;;;;;;2.17;2.03;;;19.20;1.00;;;;;;5030749;28;20451;-80
2021/07/09 06:40:35;;;;;;;4.47;2.37;;;19.20;99.90;;;;;;5031827;28;20498;-81
2021/07/09 06:43:05;;;;;;;2.50;2.30;;;19.20;1.00;;;;;;5029375;28;21225;-80
2021/07/09 06:45:34;;;;;;;3.77;2.00;;;19.20;1.00;;;;;;5020580;28;20452;-81
2021/07/09 06:48:02;;;;;;;2.33;1.80;;;19.20;1.00;;;;;;5010826;28;21038;-80
2021/07/09 06:50:30;;;;;;;2.00;1.80;;;19.20;1.00;;;;;;5015491;28;20968;-82
2021/07/09 06:52:58;;;;;;;5.43;2.37;;;19.20;99.90;;;;;;5028960;28;20514;-81
2021/07/09 06:55:26;;;;;;;1.80;1.70;;;19.20;99.90;;;;;;5028216;28;20448;-82
2021/07/09 06:57:54;;;;;;;2.73;2.10;;;19.20;99.90;;;;;;5027080;28;20495;-80
2021/07/09 07:00:25;;;;;;;5.60;2.23;;;19.20;99.90;;;;;;5030107;28;20472;-80
2021/07/09 07:02:53;;;;;;;2.50;2.30;;;19.20;99.90;;;;;;5028898;28;20987;-81
2021/07/09 07:05:22;;;;;;;3.30;2.20;;;19.30;99.90;;;;;;5033868;28;20955;-81
2021/07/09 07:07:50;;;;;;;3.33;2.47;;;19.30;1.00;;;;;;5033106;28;20464;-82
2021/07/09 07:10:18;;;;;;;3.00;2.80;;;19.40;99.90;;;;;;5034510;28;20444;-82
2021/07/09 07:12:47;;;;;;;3.07;2.73;;;19.40;99.90;;;;;;5033302;28;20468;-80
2021/07/09 07:15:15;;;;;;;3.60;3.30;;;19.40;99.90;;;;;;5033892;28;20468;-81
2021/07/09 07:17:45;;;;;;;2.70;2.50;;;19.40;99.90;;;;;;5033514;28;20470;-81
2021/07/09 07:20:13;;;;;;;2.30;2.20;;;19.40;51.00;;;;;;5032730;28;20539;-80
2021/07/09 07:22:41;;;;;;;4.43;2.90;;;19.40;87.80;;;;;;5034072;28;20509;-81
2021/07/09 07:25:11;;;;;;;3.20;2.63;;;19.50;1.00;;;;;;5033325;28;20479;-80
2021/07/09 07:27:39;;;;;;;2.23;2.10;;;19.50;1.00;;;;;;5028212;28;20444;-83
2021/07/09 07:30:08;;;;;;;4.53;2.83;;;19.50;1.00;;;;;;5020257;28;20511;-82
2021/07/09 07:32:37;;;;;;;2.50;2.30;;;19.50;1.00;;;;;;5013340;28;20661;-83
2021/07/09 07:35:07;;;;;;;2.80;2.60;;;19.50;97.40;;;;;;5012172;28;20574;-84
2021/07/09 07:37:36;;;;;;;2.73;2.53;;;19.60;1.00;;;;;;5011660;28;20440;-83
2021/07/09 07:40:05;;;;;;;2.83;2.60;;;19.60;1.00;;;;;;5015489;28;20471;-83
2021/07/09 07:42:33;;;;;;;3.73;2.57;;;19.60;1.00;;;;;;5030397;28;20952;-84
2021/07/09 07:45:02;;;;;;;3.20;2.53;;;19.70;1.00;;;;;;5032252;28;20472;-83
2021/07/09 07:47:31;;;;;;;2.37;2.17;;;19.70;1.00;;;;;;5032588;28;20500;-82
2021/07/09 07:49:59;;;;;;;4.43;2.30;;;19.70;1.00;;;;;;5048201;28;20448;-84
2021/07/09 07:52:28;;;;;;;2.37;2.27;;;19.70;1.00;;;;;;5047882;28;20468;-83
2021/07/09 07:54:56;;;;;;;2.67;2.47;;;19.70;1.00;;;;;;5047160;28;20891;-84
2021/07/09 07:57:26;;;;;;;2.87;2.67;;;19.70;1.00;;;;;;5031480;28;21010;-84
2021/07/09 07:59:54;;;;;;;2.23;2.13;;;19.60;99.90;;;;;;5031929;28;20480;-83
2021/07/09 08:02:22;;;;;;;3.90;3.33;;;19.80;1.00;;;;;;5031278;28;20456;-83
2021/07/09 08:04:50;;;;;;;3.63;2.87;;;19.80;1.00;;;;;;5031387;28;20460;-84
2021/07/09 08:07:18;;;;;;;2.60;2.40;;;19.80;1.00;;;;;;5029760;28;20456;-84
2021/07/09 08:09:48;;;;;;;6.50;3.27;;;19.90;1.00;;;;;;5030830;28;20452;-83
2021/07/09 08:12:16;;;;;;;2.70;2.50;;;19.90;99.90;;;;;;5032212;28;20464;-83
2021/07/09 08:14:44;;;;;;;2.37;2.17;;;19.90;99.90;;;;;;5028135;28;21065;-82
2021/07/09 08:17:12;;;;;;;2.70;2.50;;;19.90;99.90;;;;;;5024031;28;20874;-84
2021/07/09 08:19:40;;;;;;;3.03;2.60;;;20.00;99.90;;;;;;5030649;28;20453;-83
2021/07/09 08:22:08;;;;;;;2.50;2.30;;;20.10;99.90;;;;;;5032114;28;20432;-83
2021/07/09 08:24:37;;;;;;;2.93;2.73;;;20.10;67.00;;;;;;5031399;28;20468;-84
2021/07/09 08:27:06;;;;;;;2.07;1.97;;;20.20;99.90;;;;;;5026888;28;20444;-83
2021/07/09 08:29:34;;;;;;;2.53;2.33;;;20.30;99.90;;;;;;5027284;28;20441;-84
2021/07/09 08:32:04;;;;;;;2.90;2.70;;;20.30;1.00;;;;;;5022378;28;20510;-82
2021/07/09 08:34:33;;;;;;;3.17;2.37;;;20.40;1.00;;;;;;5029463;28;20468;-83
2021/07/09 08:37:01;;;;;;;3.00;2.60;;;20.40;99.90;;;;;;5031080;28;20538;-83
2021/07/09 08:39:29;;;;;;;2.97;2.77;;;20.50;1.00;;;;;;5029110;28;20447;-83
2021/07/09 08:41:57;;;;;;;3.47;2.40;;;20.50;1.00;;;;;;5031383;28;20479;-84
2021/07/09 08:44:27;;;;;;;3.23;2.50;;;20.70;99.90;;;;;;5031146;28;20478;-83
2021/07/09 08:46:57;;;;;;;2.70;2.50;;;20.60;1.00;;;;;;5012273;28;20447;-82
2021/07/09 08:49:25;;;;;;;2.53;2.30;;;20.60;1.00;;;;;;5026293;28;20452;-83
2021/07/09 08:51:54;;;;;;;3.00;2.37;;;20.70;1.00;;;;;;5030933;28;20500;-83
2021/07/09 08:54:22;;;;;;;2.50;2.30;;;20.70;99.90;;;;;;5031828;28;20460;-83
2021/07/09 08:56:51;;;;;;;3.77;2.00;;;20.70;99.90;;;;;;5030701;28;20459;-83
2021/07/09 08:59:20;;;;;;;4.03;2.90;;;20.70;99.90;;;;;;5030100;28;20476;-83
2021/07/09 09:01:56;;;;;;;3.53;2.30;;;20.70;99.90;;;;;;5012777;28;20473;-83
2021/07/09 09:04:29;;;;;;;2.50;2.30;;;20.70;99.90;;;;;;5031130;28;20467;-83
2021/07/09 09:07:03;;;;;;;2.80;2.47;;;20.70;99.90;;;;;;5045673;28;20444;-83
2021/07/09 09:09:32;;;;;;;2.37;2.13;;;20.70;99.90;;;;;;5026060;28;20560;-84
2021/07/09 09:12:03;;;;;;;3.73;2.63;;;20.80;99.90;;;;;;5027743;28;20453;-83
2021/07/09 09:14:34;;;;;;;2.37;2.00;;;20.90;99.90;;;;;;5009445;28;20821;-84
2021/07/09 09:17:24;;;;;;;3.07;2.17;;;20.90;99.90;;;;;;5017959;28;20461;-81
2021/07/09 09:20:11;;;;;;;2.27;2.00;;;21.00;99.90;;;;;;5030519;28;20456;-84
2021/07/09 09:22:54;;;;;;;2.87;2.50;;;21.00;50.80;;;;;;5031294;28;20518;-83
2021/07/09 09:25:25;;;;;;;2.50;2.30;;;21.00;1.00;;;;;;5029218;28;20484;-82
2021/07/09 09:28:03;;;;;;;4.60;2.20;;;21.00;1.00;;;;;;5030569;28;20457;-84
2021/07/09 09:30:31;;;;;;;5.77;3.20;;;21.00;7.90;;;;;;5031014;28;20448;-83
2021/07/09 09:33:04;;;;;;;2.30;2.20;;;21.10;68.00;;;;;;5027711;28;20952;-82
2021/07/09 09:35:34;;;;;;;3.50;2.60;;;21.10;1.00;;;;;;5022902;28;20461;-83
2021/07/09 09:38:04;;;;;;;2.83;2.63;;;21.20;1.00;;;;;;5029568;28;20888;-82
2021/07/09 09:40:35;;;;;;;3.10;2.90;;;21.20;1.00;;;;;;5028161;28;21015;-84
2021/07/09 09:43:08;;;;;;;5.20;2.90;;;21.30;1.00;;;;;;5043701;28;20453;-84
2021/07/09 09:45:38;;;;;;;3.57;3.30;;;21.40;1.00;;;;;;5029131;28;20447;-84
2021/07/09 09:48:10;;;;;;;4.83;3.10;;;21.30;1.00;;;;;;5009581;28;20825;-82
2021/07/09 09:50:43;;;;;;;4.63;3.53;;;21.30;1.00;;;;;;5020286;28;20450;-83
2021/07/09 09:53:12;;;;;;;3.87;3.20;;;21.30;1.00;;;;;;5028327;28;20483;-82
2021/07/09 09:55:41;;;;;;;4.37;3.27;;;21.30;1.00;;;;;;5028391;28;20454;-83
2021/07/09 09:58:15;;;;;;;4.23;3.93;;;21.40;1.00;;;;;;5029065;28;20448;-83
2021/07/09 10:00:46;;;;;;;3.87;3.50;;;21.40;1.00;;;;;;5021521;28;21076;-83
2021/07/09 10:03:21;;;;;;;5.00;2.57;;;21.50;1.00;;;;;;5028950;28;20576;-83
2021/07/09 10:05:50;;;;;;;3.47;3.17;;;21.50;1.00;;;;;;5025719;28;20469;-83
2021/07/09 10:08:20;;;;;;;2.70;2.57;;;21.50;1.00;;;;;;5029176;28;20440;-84
2021/07/09 10:10:49;;;;;;;2.73;2.53;;;21.50;1.00;;;;;;5013183;28;20453;-83
2021/07/09 10:13:25;;;;;;;2.63;2.43;;;21.50;1.00;;;;;;5012666;28;20489;-84
2021/07/09 10:15:55;;;;;;;5.40;2.80;;;21.60;1.00;;;;;;5027927;28;20458;-84
2021/07/09 10:18:26;;;;;;;2.37;2.17;;;21.70;1.00;;;;;;5027935;28;20459;-84
2021/07/09 10:20:54;;;;;;;2.77;2.20;;;21.80;1.00;;;;;;5029930;28;20472;-83
2021/07/09 10:23:23;;;;;;;2.33;2.17;;;21.80;1.00;;;;;;5030413;28;20478;-77
2021/07/09 10:25:53;;;;;;;4.90;2.50;;;21.70;1.00;;;;;;5029798;28;20496;-78
2021/07/09 10:28:22;;;;;;;2.80;2.60;;;21.80;1.00;;;;;;5020816;28;20901;-77
2021/07/09 10:30:53;;;;;;;3.10;2.70;;;21.80;1.00;;;;;;5019704;28;20462;-79
2021/07/09 10:33:32;;;;;;;3.90;2.73;;;21.80;1.00;;;;;;5023693;28;21001;-77
2021/07/09 10:36:05;;;;;;;4.07;3.50;;;21.80;1.00;;;;;;5008460;28;20451;-78
2021/07/09 10:38:38;;;;;;;9.00;4.53;;;21.70;1.00;;;;;;5011155;28;21008;-78
2021/07/09 10:41:17;;;;;;;5.37;4.87;;;21.70;5.00;;;;;;5009130;28;20477;-79
2021/07/09 10:44:18;;;;;;;6.90;5.27;;;21.60;99.90;;;;;;5010954;28;20470;-77
2021/07/09 10:46:48;;;;;;;6.33;5.10;;;21.50;1.00;;;;;;5028926;28;20452;-78
2021/07/09 10:49:49;;;;;;;6.60;5.10;;;21.50;99.90;;;;;;5033946;28;20497;-76
2021/07/09 10:52:47;;;;;;;4.40;4.10;;;21.50;1.00;;;;;;5030002;28;20877;-77
2021/07/09 10:55:37;;;;;;;8.50;5.87;;;21.60;1.00;;;;;;5028408;28;20484;-79
2021/07/09 10:58:28;;;;;;;6.07;5.50;;;21.70;1.00;;;;;;5029904;28;20450;-77
2021/07/09 11:00:58;;;;;;;5.47;5.00;;;21.80;99.90;;;;;;5042397;28;20460;-78
2021/07/09 11:03:31;;;;;;;6.20;4.90;;;22.00;99.90;;;;;;5035648;28;20639;-78
2021/07/09 11:06:06;;;;;;;4.83;4.33;;;22.00;99.90;;;;;;5032570;28;20461;-78
2021/07/09 11:08:59;;;;;;;6.00;5.40;;;22.00;1.00;;;;;;5028858;28;20484;-79
2021/07/09 11:11:39;;;;;;;6.97;6.27;;;22.00;99.90;;;;;;5027548;28;20443;-79
2021/07/09 11:14:15;;;;;;;5.63;5.13;;;22.00;99.90;;;;;;5029048;28;20472;-77
2021/07/09 11:16:49;;;;;;;5.40;4.43;;;22.00;1.00;;;;;;5028468;28;21022;-78
2021/07/09 11:19:19;;;;;;;6.83;6.23;;;22.00;99.90;;;;;;5049125;28;20452;-79
2021/07/09 11:22:01;;;;;;;6.43;5.83;;;22.00;97.00;;;;;;5040786;28;20480;-79
2021/07/09 11:24:41;;;;;;;5.50;5.00;;;22.20;99.90;;;;;;5025546;28;20482;-78
2021/07/09 11:27:14;;;;;;;5.83;4.60;;;22.10;99.90;;;;;;5030573;28;20447;-78
2021/07/09 11:29:49;;;;;;;6.00;5.20;;;22.10;99.90;;;;;;5028930;28;20458;-80
2021/07/09 11:32:22;;;;;;;6.00;5.23;;;22.10;99.90;;;;;;5030484;28;20459;-82
2021/07/09 11:34:52;;;;;;;4.00;3.70;;;22.20;99.90;;;;;;5022442;28;20488;-81
2021/07/09 11:37:21;;;;;;;4.60;4.30;;;22.20;99.90;;;;;;5010439;28;20982;-81
2021/07/09 11:39:52;;;;;;;5.03;4.00;;;22.30;1.00;;;;;;5013985;28;20502;-80
2021/07/09 11:42:22;;;;;;;3.90;3.60;;;22.40;1.00;;;;;;5016031;28;20968;-83
2021/07/09 11:44:52;;;;;;;4.57;4.17;;;22.40;1.00;;;;;;5029251;28;20486;-79
2021/07/09 11:47:21;;;;;;;5.10;4.70;;;22.50;1.00;;;;;;5031172;28;20455;-80
2021/07/09 11:49:51;;;;;;;4.07;3.20;;;22.50;1.00;;;;;;5027027;28;20472;-78
2021/07/09 11:52:24;;;;;;;3.80;3.60;;;22.50;1.00;;;;;;5033882;28;20438;-78
2021/07/09 11:54:55;;;;;;;4.27;3.97;;;22.60;1.00;;;;;;5028769;28;20535;-80
2021/07/09 11:57:26;;;;;;;4.00;3.60;;;22.60;1.00;;;;;;5034798;28;20520;-79
2021/07/09 12:00:08;;;;;;;3.60;3.30;;;22.70;1.00;;;;;;5034587;28;20470;-79
2021/07/09 12:02:37;;;;;;;5.03;3.37;;;22.60;1.00;;;;;;5034542;28;20506;-80
2021/07/09 12:05:07;;;;;;;3.60;2.87;;;22.60;99.90;;;;;;5030614;28;21141;-83
2021/07/09 12:07:37;;;;;;;3.40;3.20;;;22.70;99.90;;;;;;5034285;28;20459;-78
2021/07/09 12:10:09;;;;;;;3.93;3.57;;;22.70;99.90;;;;;;5033886;28;20440;-79
2021/07/09 12:12:40;;;;;;;3.10;2.90;;;22.70;99.90;;;;;;5032182;28;20454;-81
2021/07/09 12:15:15;;;;;;;4.07;3.77;;;22.70;99.90;;;;;;5031562;28;20475;-80
2021/07/09 12:17:46;;;;;;;3.87;2.97;;;22.60;99.90;;;;;;5033207;28;20474;-80
2021/07/09 12:20:22;;;;;;;3.27;2.97;;;22.70;99.90;;;;;;5032758;28;20477;-81
2021/07/09 12:22:56;;;;;;;2.63;2.43;;;22.70;99.90;;;;;;5028179;28;20806;-81
2021/07/09 12:25:27;;;;;;;2.57;2.30;;;22.70;99.90;;;;;;5030379;28;20519;-80
2021/07/09 12:27:56;;;;;;;4.83;2.77;;;22.70;99.90;;;;;;5027721;28;20963;-80
2021/07/09 12:30:27;;;;;;;3.17;2.40;;;22.70;99.90;;;;;;5028622;28;20456;-78
2021/07/09 12:32:58;;;;;;;3.47;2.60;;;22.70;99.90;;;;;;5031866;28;20470;-78
2021/07/09 12:35:46;;;;;;;2.63;2.50;;;22.80;99.90;;;;;;5029302;28;21329;-81
2021/07/09 12:38:21;;;;;;;2.80;2.60;;;22.80;99.90;;;;;;5026019;28;21073;-80
2021/07/09 12:40:52;;;;;;;2.70;2.50;;;22.90;99.90;;;;;;5033087;28;20454;-79
2021/07/09 12:43:45;;;;;;;2.73;2.53;;;22.90;99.90;;;;;;5012899;28;20504;-81
2021/07/09 12:46:17;;;;;;;2.60;2.40;;;22.90;99.90;;;;;;5028576;28;20452;-80
2021/07/09 12:48:48;;;;;;;3.13;2.60;;;22.90;99.90;;;;;;5032348;28;20440;-80
2021/07/09 12:51:19;;;;;;;3.07;2.80;;;22.90;99.90;;;;;;5032134;28;20859;-79
2021/07/09 12:53:55;;;;;;;8.53;3.33;;;22.90;99.90;;;;;;5031219;28;20526;-79
2021/07/09 12:56:27;;;;;;;3.77;3.43;;;22.90;99.90;;;;;;5046201;28;20456;-79
2021/07/09 12:59:00;;;;;;;3.23;2.73;;;22.80;99.90;;;;;;5018948;28;20456;-80
2021/07/09 13:01:28;;;;;;;2.57;2.37;;;22.80;99.90;;;;;;5045385;28;20448;-80
2021/07/09 13:03:57;;;;;;;2.40;2.20;;;22.80;99.90;;;;;;5029029;28;20545;-78
2021/07/09 13:06:30;;;;;;;2.80;2.60;;;22.80;99.90;;;;;;5031433;28;20441;-80
2021/07/09 13:09:10;;;;;;;2.93;2.73;;;22.80;99.90;;;;;;5031576;28;20451;-77